sensor_id;sensor_type;location;lat;lon;timestamp;temperature;humidity
44695;DHT22;32845;59.422;17.930;2022-10-12T00:03:52;4.50;99.90
44695;DHT22;32845;59.422;17.930;2022-10-12T00:08:23;4.60;99.90
44695;DHT22;32845;59.422;17.930;2022-10-12T00:12:54;4.60;99.90
44695;DHT22;32845;59.422;17.930;2022-10-12T00:17:24;4.70;99.90
44695;DHT22;32845;59.422;17.930;2022-10-12T00:21:55;4.70;99.90
44695;DHT22;32845;59.422;17.930;2022-10-12T00:26:27;4.70;99.90
44695;DHT22;32845;59.422;17.930;2022-10-12T00:30:58;4.70;99.90
44695;DHT22;32845;59.422;17.930;2022-10-12T00:35:29;4.70;99.90
44695;DHT22;32845;59.422;17.930;2022-10-12T00:40:00;4.70;99.90
44695;DHT22;32845;59.422;17.930;2022-10-12T00:44:45;4.60;99.90
44695;DHT22;32845;59.422;17.930;2022-10-12T00:49:21;4.60;99.90
44695;DHT22;32845;59.422;17.930;2022-10-12T00:53:57;4.50;99.90
44695;DHT22;32845;59.422;17.930;2022-10-12T00:58:29;4.40;99.90
44695;DHT22;32845;59.422;17.930;2022-10-12T01:03:01;4.40;99.90
44695;DHT22;32845;59.422;17.930;2022-10-12T01:07:32;4.50;99.90
44695;DHT22;32845;59.422;17.930;2022-10-12T01:12:03;4.50;99.90
44695;DHT22;32845;59.422;17.930;2022-10-12T01:17:04;4.50;99.90
44695;DHT22;32845;59.422;17.930;2022-10-12T01:21:40;4.60;99.90
44695;DHT22;32845;59.422;17.930;2022-10-12T01:31:29;4.60;99.90
44695;DHT22;32845;59.422;17.930;2022-10-12T01:40:47;4.40;99.90
44695;DHT22;32845;59.422;17.930;2022-10-12T01:45:20;4.30;99.90
44695;DHT22;32845;59.422;17.930;2022-10-12T01:49:51;4.30;99.90
44695;DHT22;32845;59.422;17.930;2022-10-12T02:09:33;4.00;99.90
44695;DHT22;32845;59.422;17.930;2022-10-12T02:14:14;4.00;99.90
44695;DHT22;32845;59.422;17.930;2022-10-12T02:18:50;3.90;99.90
44695;DHT22;32845;59.422;17.930;2022-10-12T02:23:23;3.90;99.90
44695;DHT22;32845;59.422;17.930;2022-10-12T02:27:58;3.80;99.90
44695;DHT22;32845;59.422;17.930;2022-10-12T02:32:42;3.80;99.90
44695;DHT22;32845;59.422;17.930;2022-10-12T02:42:08;4.10;99.90
44695;DHT22;32845;59.422;17.930;2022-10-12T02:46:41;4.20;99.90
44695;DHT22;32845;59.422;17.930;2022-10-12T02:51:13;4.30;99.90
44695;DHT22;32845;59.422;17.930;2022-10-12T02:55:52;4.40;99.90
44695;DHT22;32845;59.422;17.930;2022-10-12T03:00:23;4.30;99.90
44695;DHT22;32845;59.422;17.930;2022-10-12T03:04:53;4.20;99.90
44695;DHT22;32845;59.422;17.930;2022-10-12T03:09:24;4.10;99.90
44695;DHT22;32845;59.422;17.930;2022-10-12T03:13:55;3.90;99.90
44695;DHT22;32845;59.422;17.930;2022-10-12T03:18:26;3.90;99.90
44695;DHT22;32845;59.422;17.930;2022-10-12T03:22:57;3.80;99.90
44695;DHT22;32845;59.422;17.930;2022-10-12T03:27:27;3.70;99.90
44695;DHT22;32845;59.422;17.930;2022-10-12T03:31:58;3.70;99.90
44695;DHT22;32845;59.422;17.930;2022-10-12T03:36:29;3.70;99.90
44695;DHT22;32845;59.422;17.930;2022-10-12T03:41:00;3.60;99.90
44695;DHT22;32845;59.422;17.930;2022-10-12T03:45:31;3.60;99.90
44695;DHT22;32845;59.422;17.930;2022-10-12T03:50:02;3.50;99.90
44695;DHT22;32845;59.422;17.930;2022-10-12T03:54:33;3.50;99.90
44695;DHT22;32845;59.422;17.930;2022-10-12T03:59:09;3.50;99.90
44695;DHT22;32845;59.422;17.930;2022-10-12T04:03:39;3.40;99.90
44695;DHT22;32845;59.422;17.930;2022-10-12T04:08:10;3.40;99.90
44695;DHT22;32845;59.422;17.930;2022-10-12T04:12:41;3.40;99.90
44695;DHT22;32845;59.422;17.930;2022-10-12T04:17:14;3.30;99.90
44695;DHT22;32845;59.422;17.930;2022-10-12T04:21:45;3.30;99.90
44695;DHT22;32845;59.422;17.930;2022-10-12T04:26:16;3.30;99.90
44695;DHT22;32845;59.422;17.930;2022-10-12T04:30:47;3.30;99.90
44695;DHT22;32845;59.422;17.930;2022-10-12T04:35:17;3.30;99.90
44695;DHT22;32845;59.422;17.930;2022-10-12T04:39:48;3.20;99.90
44695;DHT22;32845;59.422;17.930;2022-10-12T04:44:19;3.20;99.90
44695;DHT22;32845;59.422;17.930;2022-10-12T04:48:50;3.10;99.90
44695;DHT22;32845;59.422;17.930;2022-10-12T04:53:21;3.00;99.90
44695;DHT22;32845;59.422;17.930;2022-10-12T04:57:51;2.90;99.90
44695;DHT22;32845;59.422;17.930;2022-10-12T05:02:22;2.90;99.90
44695;DHT22;32845;59.422;17.930;2022-10-12T05:06:53;2.80;99.90
44695;DHT22;32845;59.422;17.930;2022-10-12T05:11:24;2.70;99.90
44695;DHT22;32845;59.422;17.930;2022-10-12T05:15:54;2.60;99.90
44695;DHT22;32845;59.422;17.930;2022-10-12T05:20:25;2.50;99.90
44695;DHT22;32845;59.422;17.930;2022-10-12T05:24:56;2.50;99.90
44695;DHT22;32845;59.422;17.930;2022-10-12T05:29:32;2.40;99.90
44695;DHT22;32845;59.422;17.930;2022-10-12T05:34:02;2.40;99.90
44695;DHT22;32845;59.422;17.930;2022-10-12T05:38:38;2.40;99.90
44695;DHT22;32845;59.422;17.930;2022-10-12T05:43:09;2.40;99.90
44695;DHT22;32845;59.422;17.930;2022-10-12T05:47:39;2.40;99.90
44695;DHT22;32845;59.422;17.930;2022-10-12T05:52:10;2.40;99.90
44695;DHT22;32845;59.422;17.930;2022-10-12T05:56:46;2.30;99.90
44695;DHT22;32845;59.422;17.930;2022-10-12T06:01:17;2.30;99.90
44695;DHT22;32845;59.422;17.930;2022-10-12T06:05:47;2.30;99.90
44695;DHT22;32845;59.422;17.930;2022-10-12T06:10:18;2.40;99.90
44695;DHT22;32845;59.422;17.930;2022-10-12T06:14:49;2.40;99.90
44695;DHT22;32845;59.422;17.930;2022-10-12T06:19:20;2.50;99.90
44695;DHT22;32845;59.422;17.930;2022-10-12T06:23:51;2.60;99.90
44695;DHT22;32845;59.422;17.930;2022-10-12T06:28:21;2.60;99.90
44695;DHT22;32845;59.422;17.930;2022-10-12T06:32:52;2.70;99.90
44695;DHT22;32845;59.422;17.930;2022-10-12T06:37:23;2.70;99.90
44695;DHT22;32845;59.422;17.930;2022-10-12T06:41:53;2.80;99.90
44695;DHT22;32845;59.422;17.930;2022-10-12T06:46:24;2.90;99.90
44695;DHT22;32845;59.422;17.930;2022-10-12T06:50:55;3.00;99.90
44695;DHT22;32845;59.422;17.930;2022-10-12T06:55:25;3.20;99.90
44695;DHT22;32845;59.422;17.930;2022-10-12T07:00:01;3.50;99.90
44695;DHT22;32845;59.422;17.930;2022-10-12T07:04:32;3.60;99.90
44695;DHT22;32845;59.422;17.930;2022-10-12T07:09:18;3.80;99.90
44695;DHT22;32845;59.422;17.930;2022-10-12T07:13:48;3.90;99.90
44695;DHT22;32845;59.422;17.930;2022-10-12T07:18:19;4.10;99.90
44695;DHT22;32845;59.422;17.930;2022-10-12T07:22:51;4.20;99.90
44695;DHT22;32845;59.422;17.930;2022-10-12T07:27:22;4.40;99.90
44695;DHT22;32845;59.422;17.930;2022-10-12T07:31:53;4.60;99.90
44695;DHT22;32845;59.422;17.930;2022-10-12T07:36:28;4.90;99.90
44695;DHT22;32845;59.422;17.930;2022-10-12T07:41:00;5.10;99.90
44695;DHT22;32845;59.422;17.930;2022-10-12T07:45:31;5.30;99.90
44695;DHT22;32845;59.422;17.930;2022-10-12T07:50:03;5.40;99.90
44695;DHT22;32845;59.422;17.930;2022-10-12T07:54:34;5.50;99.90
44695;DHT22;32845;59.422;17.930;2022-10-12T07:59:09;5.60;99.90
44695;DHT22;32845;59.422;17.930;2022-10-12T08:03:40;5.70;99.90
44695;DHT22;32845;59.422;17.930;2022-10-12T08:08:16;5.80;99.90
44695;DHT22;32845;59.422;17.930;2022-10-12T08:12:47;5.90;99.90
44695;DHT22;32845;59.422;17.930;2022-10-12T08:17:17;6.10;99.90
44695;DHT22;32845;59.422;17.930;2022-10-12T08:21:49;6.30;99.90
44695;DHT22;32845;59.422;17.930;2022-10-12T08:26:19;6.40;99.90
44695;DHT22;32845;59.422;17.930;2022-10-12T08:30:50;6.60;99.90
44695;DHT22;32845;59.422;17.930;2022-10-12T08:35:21;6.80;99.90
44695;DHT22;32845;59.422;17.930;2022-10-12T08:39:52;6.90;99.90
44695;DHT22;32845;59.422;17.930;2022-10-12T08:49:35;7.20;99.90
44695;DHT22;32845;59.422;17.930;2022-10-12T08:54:14;7.40;99.90
44695;DHT22;32845;59.422;17.930;2022-10-12T08:58:46;7.50;99.90
44695;DHT22;32845;59.422;17.930;2022-10-12T09:08:20;7.80;99.90
44695;DHT22;32845;59.422;17.930;2022-10-12T09:13:15;8.00;99.90
44695;DHT22;32845;59.422;17.930;2022-10-12T09:17:56;8.20;99.90
44695;DHT22;32845;59.422;17.930;2022-10-12T09:22:28;8.30;99.90
44695;DHT22;32845;59.422;17.930;2022-10-12T09:27:17;8.50;99.90
44695;DHT22;32845;59.422;17.930;2022-10-12T09:32:07;8.70;99.90
44695;DHT22;32845;59.422;17.930;2022-10-12T09:36:42;8.90;99.90
44695;DHT22;32845;59.422;17.930;2022-10-12T09:41:25;9.10;99.90
44695;DHT22;32845;59.422;17.930;2022-10-12T09:46:00;9.30;99.90
44695;DHT22;32845;59.422;17.930;2022-10-12T09:50:58;9.40;99.90
44695;DHT22;32845;59.422;17.930;2022-10-12T09:55:29;9.80;99.90
44695;DHT22;32845;59.422;17.930;2022-10-12T10:00:03;10.00;99.90
44695;DHT22;32845;59.422;17.930;2022-10-12T10:04:37;10.30;99.90
44695;DHT22;32845;59.422;17.930;2022-10-12T10:09:31;10.80;99.90
44695;DHT22;32845;59.422;17.930;2022-10-12T10:14:02;11.60;99.90
44695;DHT22;32845;59.422;17.930;2022-10-12T10:18:40;12.40;99.90
44695;DHT22;32845;59.422;17.930;2022-10-12T10:23:49;13.10;99.90
44695;DHT22;32845;59.422;17.930;2022-10-12T10:28:23;13.90;99.90
44695;DHT22;32845;59.422;17.930;2022-10-12T10:33:11;14.10;99.90
44695;DHT22;32845;59.422;17.930;2022-10-12T10:37:51;14.40;99.90
44695;DHT22;32845;59.422;17.930;2022-10-12T10:42:29;14.40;99.90
44695;DHT22;32845;59.422;17.930;2022-10-12T10:47:12;14.50;99.90
44695;DHT22;32845;59.422;17.930;2022-10-12T10:51:49;14.50;99.90
44695;DHT22;32845;59.422;17.930;2022-10-12T10:56:26;14.60;99.90
44695;DHT22;32845;59.422;17.930;2022-10-12T11:06:37;15.00;99.90
44695;DHT22;32845;59.422;17.930;2022-10-12T11:11:15;15.20;99.90
44695;DHT22;32845;59.422;17.930;2022-10-12T11:16:02;15.70;99.90
44695;DHT22;32845;59.422;17.930;2022-10-12T11:29:57;17.00;99.80
44695;DHT22;32845;59.422;17.930;2022-10-12T11:34:44;17.40;99.90
44695;DHT22;32845;59.422;17.930;2022-10-12T11:39:40;17.80;94.50
44695;DHT22;32845;59.422;17.930;2022-10-12T11:44:34;18.00;90.40
44695;DHT22;32845;59.422;17.930;2022-10-12T11:49:28;18.10;91.90
44695;DHT22;32845;59.422;17.930;2022-10-12T11:59:01;17.90;90.80
44695;DHT22;32845;59.422;17.930;2022-10-12T12:04:03;17.90;91.40
44695;DHT22;32845;59.422;17.930;2022-10-12T12:18:08;18.10;93.30
44695;DHT22;32845;59.422;17.930;2022-10-12T12:22:48;18.00;87.00
44695;DHT22;32845;59.422;17.930;2022-10-12T12:31:55;17.90;92.10
44695;DHT22;32845;59.422;17.930;2022-10-12T12:36:35;17.80;91.30
44695;DHT22;32845;59.422;17.930;2022-10-12T12:41:20;17.70;89.40
44695;DHT22;32845;59.422;17.930;2022-10-12T12:46:01;17.60;88.10
44695;DHT22;32845;59.422;17.930;2022-10-12T12:50:36;17.40;87.90
44695;DHT22;32845;59.422;17.930;2022-10-12T12:55:25;17.50;88.20
44695;DHT22;32845;59.422;17.930;2022-10-12T13:10:02;17.60;88.30
44695;DHT22;32845;59.422;17.930;2022-10-12T13:19:11;17.50;90.00
44695;DHT22;32845;59.422;17.930;2022-10-12T13:23:44;17.50;87.90
44695;DHT22;32845;59.422;17.930;2022-10-12T13:28:23;17.30;87.70
44695;DHT22;32845;59.422;17.930;2022-10-12T13:37:39;17.10;86.30
44695;DHT22;32845;59.422;17.930;2022-10-12T13:42:15;16.80;87.80
44695;DHT22;32845;59.422;17.930;2022-10-12T13:46:56;16.60;87.90
44695;DHT22;32845;59.422;17.930;2022-10-12T13:51:29;16.20;88.90
44695;DHT22;32845;59.422;17.930;2022-10-12T13:56:24;15.70;88.80
44695;DHT22;32845;59.422;17.930;2022-10-12T14:00:55;15.30;88.60
44695;DHT22;32845;59.422;17.930;2022-10-12T14:05:28;14.80;90.40
44695;DHT22;32845;59.422;17.930;2022-10-12T14:10:06;14.50;90.80
44695;DHT22;32845;59.422;17.930;2022-10-12T14:14:39;14.20;91.00
44695;DHT22;32845;59.422;17.930;2022-10-12T14:24:09;13.60;91.50
44695;DHT22;32845;59.422;17.930;2022-10-12T14:28:40;13.40;92.50
44695;DHT22;32845;59.422;17.930;2022-10-12T14:33:21;13.10;92.50
44695;DHT22;32845;59.422;17.930;2022-10-12T14:37:53;12.90;93.20
44695;DHT22;32845;59.422;17.930;2022-10-12T14:42:32;12.70;93.50
44695;DHT22;32845;59.422;17.930;2022-10-12T14:47:03;12.40;93.60
44695;DHT22;32845;59.422;17.930;2022-10-12T14:51:39;12.10;92.40
44695;DHT22;32845;59.422;17.930;2022-10-12T14:56:10;12.10;92.90
44695;DHT22;32845;59.422;17.930;2022-10-12T15:00:43;11.90;93.50
44695;DHT22;32845;59.422;17.930;2022-10-12T15:05:16;11.80;93.60
44695;DHT22;32845;59.422;17.930;2022-10-12T15:09:52;11.50;93.60
44695;DHT22;32845;59.422;17.930;2022-10-12T15:14:22;11.30;94.40
44695;DHT22;32845;59.422;17.930;2022-10-12T15:18:53;11.00;94.70
44695;DHT22;32845;59.422;17.930;2022-10-12T15:23:24;10.70;95.00
44695;DHT22;32845;59.422;17.930;2022-10-12T15:27:54;10.50;95.40
44695;DHT22;32845;59.422;17.930;2022-10-12T15:32:25;10.40;95.80
44695;DHT22;32845;59.422;17.930;2022-10-12T15:36:56;10.30;95.90
44695;DHT22;32845;59.422;17.930;2022-10-12T15:41:27;10.20;96.20
44695;DHT22;32845;59.422;17.930;2022-10-12T15:45:58;10.00;96.60
44695;DHT22;32845;59.422;17.930;2022-10-12T15:50:42;9.90;96.60
44695;DHT22;32845;59.422;17.930;2022-10-12T15:55:20;9.70;97.20
44695;DHT22;32845;59.422;17.930;2022-10-12T15:59:54;9.50;97.60
44695;DHT22;32845;59.422;17.930;2022-10-12T16:04:24;9.30;98.20
44695;DHT22;32845;59.422;17.930;2022-10-12T16:09:00;9.10;98.40
44695;DHT22;32845;59.422;17.930;2022-10-12T16:13:31;8.90;98.60
44695;DHT22;32845;59.422;17.930;2022-10-12T16:18:03;8.80;99.00
44695;DHT22;32845;59.422;17.930;2022-10-12T16:22:34;8.70;99.50
44695;DHT22;32845;59.422;17.930;2022-10-12T16:27:05;8.50;99.90
44695;DHT22;32845;59.422;17.930;2022-10-12T16:31:36;8.40;99.90
44695;DHT22;32845;59.422;17.930;2022-10-12T16:36:12;8.30;99.90
44695;DHT22;32845;59.422;17.930;2022-10-12T16:40:43;8.20;99.90
44695;DHT22;32845;59.422;17.930;2022-10-12T16:45:13;8.00;99.90
44695;DHT22;32845;59.422;17.930;2022-10-12T16:49:44;7.90;99.90
44695;DHT22;32845;59.422;17.930;2022-10-12T16:54:15;7.70;99.90
44695;DHT22;32845;59.422;17.930;2022-10-12T16:58:51;7.60;99.90
44695;DHT22;32845;59.422;17.930;2022-10-12T17:03:22;7.50;99.90
44695;DHT22;32845;59.422;17.930;2022-10-12T17:07:54;7.30;99.90
44695;DHT22;32845;59.422;17.930;2022-10-12T17:12:25;7.30;99.90
44695;DHT22;32845;59.422;17.930;2022-10-12T17:16:56;7.20;99.90
44695;DHT22;32845;59.422;17.930;2022-10-12T17:21:27;7.10;99.90
44695;DHT22;32845;59.422;17.930;2022-10-12T17:25:58;7.00;99.90
44695;DHT22;32845;59.422;17.930;2022-10-12T17:30:29;6.90;99.90
44695;DHT22;32845;59.422;17.930;2022-10-12T17:34:59;6.90;99.90
44695;DHT22;32845;59.422;17.930;2022-10-12T17:39:32;6.80;99.90
44695;DHT22;32845;59.422;17.930;2022-10-12T17:44:03;6.70;99.90
44695;DHT22;32845;59.422;17.930;2022-10-12T17:48:34;6.70;99.90
44695;DHT22;32845;59.422;17.930;2022-10-12T17:53:05;6.60;99.90
44695;DHT22;32845;59.422;17.930;2022-10-12T17:57:35;6.50;99.90
44695;DHT22;32845;59.422;17.930;2022-10-12T18:02:06;6.50;99.90
44695;DHT22;32845;59.422;17.930;2022-10-12T18:06:42;6.40;99.90
44695;DHT22;32845;59.422;17.930;2022-10-12T18:11:17;6.40;99.90
44695;DHT22;32845;59.422;17.930;2022-10-12T18:15:48;6.30;99.90
44695;DHT22;32845;59.422;17.930;2022-10-12T18:20:19;6.20;99.90
44695;DHT22;32845;59.422;17.930;2022-10-12T18:24:49;6.20;99.90
44695;DHT22;32845;59.422;17.930;2022-10-12T18:29:25;6.10;99.90
44695;DHT22;32845;59.422;17.930;2022-10-12T18:33:56;6.10;99.90
44695;DHT22;32845;59.422;17.930;2022-10-12T18:38:28;6.10;99.90
44695;DHT22;32845;59.422;17.930;2022-10-12T18:42:58;6.10;99.90
44695;DHT22;32845;59.422;17.930;2022-10-12T18:47:29;6.10;99.90
44695;DHT22;32845;59.422;17.930;2022-10-12T18:52:00;6.10;99.90
44695;DHT22;32845;59.422;17.930;2022-10-12T18:56:35;6.10;99.90
44695;DHT22;32845;59.422;17.930;2022-10-12T19:01:14;6.20;99.90
44695;DHT22;32845;59.422;17.930;2022-10-12T19:05:45;6.30;99.90
44695;DHT22;32845;59.422;17.930;2022-10-12T19:10:16;6.30;99.90
44695;DHT22;32845;59.422;17.930;2022-10-12T19:14:47;6.40;99.90
44695;DHT22;32845;59.422;17.930;2022-10-12T19:19:18;6.40;99.90
44695;DHT22;32845;59.422;17.930;2022-10-12T19:23:49;6.50;99.90
44695;DHT22;32845;59.422;17.930;2022-10-12T19:28:19;6.60;99.90
44695;DHT22;32845;59.422;17.930;2022-10-12T19:32:50;6.70;99.90
44695;DHT22;32845;59.422;17.930;2022-10-12T19:37:21;6.80;99.90
44695;DHT22;32845;59.422;17.930;2022-10-12T19:41:53;6.90;99.90
44695;DHT22;32845;59.422;17.930;2022-10-12T19:46:24;6.90;99.90
44695;DHT22;32845;59.422;17.930;2022-10-12T19:51:05;7.00;99.90
44695;DHT22;32845;59.422;17.930;2022-10-12T19:55:37;7.00;99.90
44695;DHT22;32845;59.422;17.930;2022-10-12T20:00:11;7.00;99.90
44695;DHT22;32845;59.422;17.930;2022-10-12T20:04:42;7.10;99.90
44695;DHT22;32845;59.422;17.930;2022-10-12T20:09:13;7.00;99.90
44695;DHT22;32845;59.422;17.930;2022-10-12T20:13:44;7.10;99.90
44695;DHT22;32845;59.422;17.930;2022-10-12T20:18:15;7.10;99.90
44695;DHT22;32845;59.422;17.930;2022-10-12T20:22:45;7.00;99.90
44695;DHT22;32845;59.422;17.930;2022-10-12T20:27:16;6.90;99.90
44695;DHT22;32845;59.422;17.930;2022-10-12T20:31:47;6.80;99.90
44695;DHT22;32845;59.422;17.930;2022-10-12T20:36:26;6.80;99.90
44695;DHT22;32845;59.422;17.930;2022-10-12T20:41:09;6.70;99.90
44695;DHT22;32845;59.422;17.930;2022-10-12T20:45:40;6.60;99.90
44695;DHT22;32845;59.422;17.930;2022-10-12T20:50:11;6.50;99.90
44695;DHT22;32845;59.422;17.930;2022-10-12T20:54:42;6.50;99.90
44695;DHT22;32845;59.422;17.930;2022-10-12T20:59:13;6.60;99.90
44695;DHT22;32845;59.422;17.930;2022-10-12T21:03:44;6.70;99.90
44695;DHT22;32845;59.422;17.930;2022-10-12T21:08:19;6.80;99.90
44695;DHT22;32845;59.422;17.930;2022-10-12T21:12:50;6.80;99.90
44695;DHT22;32845;59.422;17.930;2022-10-12T21:17:26;6.90;99.90
44695;DHT22;32845;59.422;17.930;2022-10-12T21:21:57;6.90;99.90
44695;DHT22;32845;59.422;17.930;2022-10-12T21:26:29;6.90;99.90
44695;DHT22;32845;59.422;17.930;2022-10-12T21:31:00;6.80;99.90
44695;DHT22;32845;59.422;17.930;2022-10-12T21:35:30;6.70;99.90
44695;DHT22;32845;59.422;17.930;2022-10-12T21:40:01;6.60;99.90
44695;DHT22;32845;59.422;17.930;2022-10-12T21:44:32;6.60;99.90
44695;DHT22;32845;59.422;17.930;2022-10-12T21:49:04;6.50;99.90
44695;DHT22;32845;59.422;17.930;2022-10-12T21:53:37;6.40;99.90
44695;DHT22;32845;59.422;17.930;2022-10-12T21:58:08;6.40;99.90
44695;DHT22;32845;59.422;17.930;2022-10-12T22:02:39;6.40;99.90
44695;DHT22;32845;59.422;17.930;2022-10-12T22:07:15;6.50;99.90
44695;DHT22;32845;59.422;17.930;2022-10-12T22:11:46;6.50;99.90
44695;DHT22;32845;59.422;17.930;2022-10-12T22:16:17;6.50;99.90
44695;DHT22;32845;59.422;17.930;2022-10-12T22:20:48;6.50;99.90
44695;DHT22;32845;59.422;17.930;2022-10-12T22:25:19;6.60;99.90
44695;DHT22;32845;59.422;17.930;2022-10-12T22:29:49;6.70;99.90
44695;DHT22;32845;59.422;17.930;2022-10-12T22:34:21;6.70;99.90
44695;DHT22;32845;59.422;17.930;2022-10-12T22:38:51;6.60;99.90
44695;DHT22;32845;59.422;17.930;2022-10-12T22:43:23;6.50;99.90
44695;DHT22;32845;59.422;17.930;2022-10-12T22:47:54;6.40;99.90
44695;DHT22;32845;59.422;17.930;2022-10-12T22:52:24;6.40;99.90
44695;DHT22;32845;59.422;17.930;2022-10-12T22:56:55;6.40;99.90
44695;DHT22;32845;59.422;17.930;2022-10-12T23:01:26;6.50;99.90
44695;DHT22;32845;59.422;17.930;2022-10-12T23:05:57;6.50;99.90
44695;DHT22;32845;59.422;17.930;2022-10-12T23:10:33;6.50;99.90
44695;DHT22;32845;59.422;17.930;2022-10-12T23:15:04;6.60;99.90
44695;DHT22;32845;59.422;17.930;2022-10-12T23:19:35;6.60;99.90
44695;DHT22;32845;59.422;17.930;2022-10-12T23:24:06;6.70;99.90
44695;DHT22;32845;59.422;17.930;2022-10-12T23:28:42;6.80;99.90
44695;DHT22;32845;59.422;17.930;2022-10-12T23:33:13;6.80;99.90
44695;DHT22;32845;59.422;17.930;2022-10-12T23:37:54;6.90;99.90
44695;DHT22;32845;59.422;17.930;2022-10-12T23:42:25;6.80;99.90
44695;DHT22;32845;59.422;17.930;2022-10-12T23:46:55;6.80;99.90
44695;DHT22;32845;59.422;17.930;2022-10-12T23:51:26;6.80;99.90
44695;DHT22;32845;59.422;17.930;2022-10-12T23:55:57;6.80;99.90
